Westerland Sylt Airport

EDXW · 石勒苏益格-荷尔斯泰因, 德国

METAR的历史 EDXW · Westerland Sylt Airport

下面你可以看到过去几天的METARs。 选择年份以浏览从2007年开始的旧METAR。

2024年3月1日

时间 代码 天气 温度 能见度 天花板 METAR/SPECI
04:20
V
6 °C 10 km+ 4.800 ft 160° 160° 12 kt METAR EDXW 010320Z AUTO 16012KT 9999 // SCT042/// OVC048/// 06/04 Q1001
03:50
V
6 °C 10 km+ 3.500 ft 160° 160° 12 kt METAR EDXW 010250Z AUTO 16012KT 9999 // SCT025/// BKN035/// OVC042/// 06/04 Q1001
03:20
M
7 °C 10 km+ 2.300 ft 150° 150° 13 kt METAR EDXW 010220Z AUTO 15013KT 9999 // OVC023/// 07/04 Q1001
02:50
M
7 °C 10 km+ 2.500 ft 160° 160° 11 kt METAR EDXW 010150Z AUTO 16011KT 9999 // OVC025/// 07/04 Q1002
02:20
M
7 °C 10 km+ 3.000 ft 150° 150° 12 kt METAR EDXW 010120Z AUTO 15012KT 9999 // OVC030/// 07/04 Q1002
01:50
V
7 °C 10 km+ 3.100 ft 160° 160° 11 kt METAR EDXW 010050Z AUTO 16011KT 9999 // SCT025/// OVC031/// 07/04 Q1003
01:20
M
7 °C 10 km+ 2.800 ft 160° 160° 13 kt METAR EDXW 010020Z AUTO 16013KT 9999 // OVC028/// 07/04 Q1003
00:50
M
7 °C 10 km+ 2.800 ft 160° 160° 12 kt METAR EDXW 292350Z AUTO 16012KT 9999 // OVC028/// 07/04 Q1003
00:20
M
7 °C 10 km+ 2.300 ft 160° 160° 12 kt METAR EDXW 292320Z AUTO 16012KT 9999 // OVC023/// 07/05 Q1003

2024年2月29日

时间 代码 天气 温度 能见度 天花板 METAR/SPECI
23:50
M
7 °C 10 km+ 2.200 ft 160° 160° 15 kt METAR EDXW 292250Z AUTO 16015KT 9999 // OVC022/// 07/05 Q1003
23:20
M
7 °C 10 km+ 2.600 ft 170° 170° 13 kt METAR EDXW 292220Z AUTO 17013KT 9999 // OVC026/// 07/05 Q1004
22:50
M
7 °C 10 km+ 3.000 ft 160° 160° 14 kt METAR EDXW 292150Z AUTO 16014KT 9999 // BKN030/// OVC057/// 07/05 Q1004
22:20
M
7 °C 10 km+ 2.800 ft 160° 160° 13 kt METAR EDXW 292120Z AUTO 16013KT 9999 // OVC028/// 07/05 Q1004
21:50
V
7 °C 10 km+ 3.100 ft 170° 170° 12 kt METAR EDXW 292050Z AUTO 17012KT 9999 // OVC031/// 07/05 Q1004
21:20
V
7 °C 10 km+ 3.100 ft 160° 160° 10 kt METAR EDXW 292020Z AUTO 16010KT 9999 // BKN031/// OVC043/// 07/05 Q1004
20:50
V
7 °C 10 km+ 3.800 ft 170° 170° 9 kt METAR EDXW 291950Z AUTO 17009KT 9999 // SCT030/// BKN038/// OVC049/// 07/05 Q1005
20:20
M
7 °C 10 km+ 2.500 ft 160° 160° 9 kt METAR EDXW 291920Z AUTO 16009KT 9999 // OVC025/// 07/05 Q1005
19:50
M
7 °C 10 km+ 2.100 ft 160° 160° 11 kt METAR EDXW 291850Z AUTO 16011KT 9999 // OVC021/// 07/06 Q1005
19:20
M
7 °C 10 km+ 1.700 ft 180° 180° 11 kt METAR EDXW 291820Z AUTO 18011KT 9999 // OVC017/// 07/06 Q1005
18:50
M
7 °C 10 km+ 1.400 ft 180° 180° 13 kt METAR EDXW 291750Z AUTO 18013KT 9999 // SCT012/// OVC014/// 07/06 Q1006
18:20
M
7 °C 7 km 1.200 ft 180° 180° 13 kt METAR EDXW 291720Z AUTO 18013KT 7000 // SCT010/// OVC012/// 07/06 Q1006
17:50
I
7 °C 8 km 900 ft 180° 180° 14 kt METAR EDXW 291650Z AUTO 18014KT 8000 // FEW003/// OVC009/// 07/06 Q1006
17:20
L
6 °C 3,6 km 300 ft 180° 180° 15 kt METAR EDXW 291620Z AUTO 18015KT 3600 // OVC003/// 06/06 Q1006
16:50
L
6 °C 2,2 km 300 ft 180° 180° 15 kt METAR EDXW 291550Z AUTO 18015KT 2200 // OVC003/// 06/06 Q1006
16:20
L
6 °C 3,6 km 300 ft 180° 180° 15 kt METAR EDXW 291520Z AUTO 18015KT 3600 // OVC003/// 06/06 Q1006
15:50
L
6 °C 3,6 km 300 ft 180° 180° 15 kt METAR EDXW 291450Z 18015KT 3600 -RA BR OVC003 06/06 Q1006
15:20
L
6 °C 3,3 km 300 ft 180° 180° 16 kt METAR EDXW 291420Z 18016KT 3300 -RA BR OVC003 06/06 Q1007
14:50
L
6 °C 4,2 km 300 ft 180° 180° 15 kt METAR EDXW 291350Z 18015KT 4200 -RA BR OVC003 06/06 Q1007
14:20
L
6 °C 3,9 km 300 ft 180° 180° 16 kt METAR EDXW 291320Z 18016KT 3900 -RA BR OVC003 06/06 Q1007 RERA
13:50
L
6 °C 4,7 km 400 ft 190° 190° 15 kt METAR EDXW 291250Z 19015KT 4700 -RA OVC004 06/06 Q1008
13:20
L
6 °C 4 km 400 ft 190° 190° 17 kt METAR EDXW 291220Z 19017KT 4000 -RA BR OVC004 06/06 Q1008
12:50
L
6 °C 5 km 400 ft 190° 190° 16 kt METAR EDXW 291150Z 19016KT 5000 -RA BR OVC004 06/06 Q1008
12:20
L
6 °C 5 km 400 ft 190° 190° 17 kt METAR EDXW 291120Z 19017KT 5000 -RA BR OVC004 06/05 Q1008
11:50
I
6 °C 5 km 500 ft 190° 190° 17 kt METAR EDXW 291050Z 19017KT 5000 -RA BR OVC005 06/05 Q1008
11:20
I
6 °C 6 km 600 ft 190° 190° 17 kt METAR EDXW 291020Z 19017KT 6000 -DZ OVC006 06/05 Q1008
10:50
I
6 °C 10 km+ 900 ft 190° 190° 18 kt METAR EDXW 290950Z 19018KT 9999 SCT007 OVC009 06/05 Q1008
10:20
I
6 °C 7 km 500 ft 190° 190° 19 kt METAR EDXW 290920Z 19019KT 7000 OVC005 06/05 Q1008
09:50
I
5 °C 4 km 500 ft 190° 190° 18 kt METAR EDXW 290850Z 19018KT 4000 -DZ BR OVC005 05/05 Q1008
09:20
L
5 °C 2,8 km 400 ft 180° 180° 19 kt METAR EDXW 290820Z AUTO 18019KT 2800 // OVC004/// 05/05 Q1008
08:50
L
5 °C 2 km 400 ft 190° 190° 18 kt METAR EDXW 290750Z AUTO 19018KT 2000 // OVC004/// 05/05 Q1008
08:20
I
5 °C 2 km 500 ft 190° 190° 18 kt METAR EDXW 290720Z AUTO 19018KT 2000 // OVC005/// 05/05 Q1008
07:50
I
6 °C 2,7 km 800 ft 190° 190° 19 kt METAR EDXW 290650Z AUTO 19019KT 2700 // OVC008/// 06/05 Q1009
07:20
I
6 °C 3,7 km 1.000 ft 180° 180° 20 kt METAR EDXW 290620Z AUTO 18020KT 3700 // OVC010/// 06/05 Q1008
06:50
I
6 °C 3,7 km 1.100 ft 180° 180° 19 kt METAR EDXW 290550Z AUTO 18019KT 3700 // OVC011/// 06/05 Q1009
06:20
M
6 °C 7 km 1.400 ft 180° 180° 20 kt METAR EDXW 290520Z AUTO 18020KT 7000 // OVC014/// 06/04 Q1009
05:50
M
6 °C 6 km 1.800 ft 180° 180° 19 kt METAR EDXW 290450Z AUTO 18019KT 6000 // FEW016/// BKN018/// OVC024/// 06/04 Q1009
05:20
M
6 °C 6 km 2.200 ft 170° 170° 20 kt METAR EDXW 290420Z AUTO 17020KT 6000 // OVC022/// 06/04 Q1010
04:50
M
6 °C 6 km 3.000 ft 170° 170° 19 kt METAR EDXW 290350Z AUTO 17019KT 6000 // BKN030/// OVC077/// 06/04 Q1010
04:20
M
6 °C 5 km 7.800 ft 180° 180° 17 kt METAR EDXW 290320Z AUTO 18017KT 5000 // FEW019/// SCT030/// OVC078/// 06/04 Q1011
03:50
M
6 °C 5 km 2.200 ft 180° 180° 18 kt METAR EDXW 290250Z AUTO 18018KT 5000 // BKN022/// 06/04 Q1011
03:20
M
6 °C 5 km 3.200 ft 180° 180° 17 kt METAR EDXW 290220Z AUTO 18017KT 5000 // SCT027/// BKN032/// OVC039/// 06/04 Q1012
02:50
I
6 °C 4,8 km 3.600 ft 170° 170° 17 kt METAR EDXW 290150Z AUTO 17017KT 4800 // SCT020/// BKN036/// 06/04 Q1012
02:20
I
6 °C 4,8 km 4.000 ft 170° 170° 17 kt METAR EDXW 290120Z AUTO 17017KT 4800 // SCT008/// OVC040/// 06/04 Q1013
01:50
I
6 °C 4,7 km 800 ft 170° 170° 16 kt METAR EDXW 290050Z AUTO 17016KT 4700 // OVC008/// 06/04 Q1013
01:20
I
6 °C 4,7 km 900 ft 180° 180° 17 kt METAR EDXW 290020Z AUTO 18017KT 4700 // OVC009/// 06/04 Q1014
00:50
I
6 °C 5 km 900 ft 180° 180° 16 kt METAR EDXW 282350Z AUTO 18016KT 5000 // BKN009/// OVC017/// 06/04 Q1014
00:20
M
6 °C 5 km 2.500 ft 180° 180° 16 kt METAR EDXW 282320Z AUTO 18016KT 5000 // SCT016/// BKN025/// OVC043/// 06/05 Q1014

2024年2月28日

时间 代码 天气 温度 能见度 天花板 METAR/SPECI
23:50
I
6 °C 4,5 km 2.900 ft 180° 180° 16 kt METAR EDXW 282250Z AUTO 18016KT 4500 // FEW007/// BKN029/// OVC033/// 06/05 Q1015
23:20
I
6 °C 4,7 km 1.800 ft 180° 180° 17 kt METAR EDXW 282220Z AUTO 18017KT 4700 // SCT008/// OVC018/// 06/05 Q1015
22:50
I
6 °C 5 km 800 ft 180° 180° 16 kt METAR EDXW 282150Z AUTO 18016KT 5000 // BKN008/// BKN017/// OVC026/// 06/05 Q1016
22:20
M
6 °C 5 km 1.600 ft 180° 180° 15 kt METAR EDXW 282120Z AUTO 18015KT 5000 // FEW008/// BKN016/// BKN019/// 06/05 Q1016
21:50
M
6 °C 5 km 1.400 ft 180° 180° 15 kt METAR EDXW 282050Z AUTO 18015KT 5000 // FEW008/// BKN014/// OVC032/// 06/05 Q1016
21:20
M
6 °C 5 km 3.400 ft 180° 180° 13 kt METAR EDXW 282020Z AUTO 18013KT 5000 // FEW007/// SCT016/// BKN034/// 06/05 Q1017
20:50
M
6 °C 5 km 3.700 ft 180° 180° 13 kt METAR EDXW 281950Z AUTO 18013KT 5000 // FEW006/// OVC037/// 06/05 Q1017
20:20
I
6 °C 4,8 km 1.400 ft 180° 180° 14 kt METAR EDXW 281920Z AUTO 18014KT 4800 // SCT005/// BKN014/// OVC036/// 06/05 Q1017
19:50
L
6 °C 4,5 km 400 ft 180° 180° 12 kt METAR EDXW 281850Z AUTO 18012KT 4500 // OVC004/// 06/05 Q1017
19:20
I
6 °C 4,9 km 2.200 ft 180° 180° 11 kt METAR EDXW 281820Z AUTO 18011KT 4900 // FEW004/// SCT016/// OVC022/// 06/05 Q1017
18:50
M
6 °C 6 km 2.100 ft 190° 190° 10 kt METAR EDXW 281750Z AUTO 19010KT 6000 // FEW008/// OVC021/// 06/05 Q1017
18:20
M
6 °C 7 km 1.700 ft 200° 200° 11 kt METAR EDXW 281720Z AUTO 20011KT 7000 // OVC017/// 06/05 Q1017
17:50
M
6 °C 6 km 1.700 ft 200° 200° 11 kt METAR EDXW 281650Z AUTO 20011KT 6000 // FEW006/// OVC017/// 06/05 Q1017
17:20
M
6 °C 6 km 1.600 ft 200° 200° 10 kt METAR EDXW 281620Z AUTO 20010KT 6000 // FEW006/// OVC016/// 06/05 Q1018
16:50
M
6 °C 7 km 1.500 ft 200° 200° 10 kt METAR EDXW 281550Z AUTO 20010KT 7000 // FEW012/// BKN015/// OVC017/// 06/05 Q1018
16:20
M
6 °C 8 km 1.000 ft 210° 210° 12 kt METAR EDXW 281520Z AUTO 21012KT 8000 // SCT007/// BKN010/// OVC014/// 06/05 Q1018
15:50
M
7 °C 9 km 1.100 ft 200° 200° 12 kt METAR EDXW 281450Z 20012KT 9000 FEW008 BKN011 07/05 Q1018
15:20
I
7 °C 10 km+ 800 ft 210° 210° 12 kt METAR EDXW 281420Z 21012KT 9999 BKN008 07/05 Q1018
14:50
I
7 °C 10 km+ 800 ft 210° 210° 11 kt METAR EDXW 281350Z 21011KT 9999 BKN008 07/06 Q1018
14:20
I
7 °C 10 km+ 700 ft 210° 210° 12 kt METAR EDXW 281320Z 21012KT 9999 BKN007 07/06 Q1018
13:50
I
7 °C 10 km+ 700 ft 220° 220° 13 kt METAR EDXW 281250Z 22013KT 9999 BKN007 07/05 Q1018
13:20
I
7 °C 10 km+ 700 ft 230° 230° 14 kt METAR EDXW 281220Z 23014KT 9999 BKN007 07/05 Q1018
12:50
I
7 °C 10 km+ 700 ft 230° 230° 13 kt METAR EDXW 281150Z 23013KT 9999 BKN007 07/05 Q1018
12:20
I
7 °C 10 km+ 700 ft 230° 230° 14 kt METAR EDXW 281120Z 23014KT 9999 BKN007 BKN018 OVC022 07/06 Q1018
11:50
I
7 °C 10 km+ 700 ft 230° 230° 12 kt METAR EDXW 281050Z 23012KT 9999 BKN007 OVC022 07/06 Q1018
11:20
I
7 °C 10 km+ 600 ft 230° 230° 13 kt METAR EDXW 281020Z 23013KT 9999 BKN006 OVC022 07/06 Q1018
10:50
M
7 °C 10 km+ 1.800 ft 240° 240° 11 kt METAR EDXW 280950Z 24011KT 9999 SCT005 OVC018 07/06 Q1018
10:20
I
7 °C 8 km 500 ft 230° 230° 11 kt METAR EDXW 280920Z 23011KT 8000 OVC005 07/06 Q1018
09:50
I
6 °C 7 km 600 ft 220° 220° 12 kt METAR EDXW 280850Z 22012KT 7000 OVC006 06/05 Q1018
09:20
I
6 °C 7 km 600 ft 220° 220° 10 kt METAR EDXW 280820Z AUTO 22010KT 7000 // OVC006/// 06/05 Q1018
08:50
I
6 °C 8 km 600 ft 230° 230° 10 kt METAR EDXW 280750Z AUTO 23010KT 8000 // OVC006/// 06/05 Q1017
08:20
I
6 °C 6 km 700 ft 230° 230° 11 kt METAR EDXW 280720Z AUTO 23011KT 6000 // OVC007/// 06/05 Q1017
07:50
I
5 °C 5 km 600 ft 220° 220° 11 kt METAR EDXW 280650Z AUTO 22011KT 5000 // OVC006/// 05/04 Q1017
07:20
L
5 °C 5 km 400 ft 220° 220° 11 kt METAR EDXW 280620Z AUTO 22011KT 5000 // OVC004/// 05/04 Q1017
06:50
L
5 °C 3,3 km 400 ft 210° 210° 12 kt METAR EDXW 280550Z AUTO 21012KT 3300 // OVC004/// 05/04 Q1016
06:20
I
5 °C 5 km 700 ft 210° 210° 11 kt METAR EDXW 280520Z AUTO 21011KT 5000 // OVC007/// 05/04 Q1016
05:50
M
5 °C 6 km 1.300 ft 210° 210° 13 kt METAR EDXW 280450Z AUTO 21013KT 6000 // FEW008/// OVC013/// 05/03 Q1016
05:20
M
4 °C 6 km 2.000 ft 210° 210° 13 kt METAR EDXW 280420Z AUTO 21013KT 6000 // FEW009/// OVC020/// 04/03 Q1016
04:50
M
4 °C 6 km 3.200 ft 210° 210° 13 kt METAR EDXW 280350Z AUTO 21013KT 6000 // FEW009/// BKN032/// OVC037/// 04/03 Q1016
04:20
V
4 °C 9 km 4.100 ft 210° 210° 13 kt METAR EDXW 280320Z AUTO 21013KT 9000 // FEW013/// SCT025/// OVC041/// 04/03 Q1016
03:50
M
4 °C 10 km+ 2.100 ft 210° 210° 13 kt METAR EDXW 280250Z AUTO 21013KT 9999 // SCT013/// OVC021/// 04/02 Q1017
03:20
M
4 °C 10 km+ 1.300 ft 200° 200° 12 kt METAR EDXW 280220Z AUTO 20012KT 9999 // OVC013/// 04/02 Q1017
02:50
M
4 °C 10 km+ 1.500 ft 210° 210° 12 kt METAR EDXW 280150Z AUTO 21012KT 9999 // OVC015/// 04/02 Q1017
02:20
M
4 °C 10 km+ 1.700 ft 200° 200° 12 kt METAR EDXW 280120Z AUTO 20012KT 9999 // OVC017/// 04/01 Q1017
01:50
M
4 °C 10 km+ 1.700 ft 200° 200° 13 kt METAR EDXW 280050Z AUTO 20013KT 9999 // FEW015/// BKN017/// OVC021/// 04/01 Q1017
01:20
M
4 °C 10 km+ 2.300 ft 190° 190° 12 kt METAR EDXW 280020Z AUTO 19012KT 9999 // BKN023/// OVC029/// 04/01 Q1017
00:50
M
4 °C 10 km+ 2.300 ft 190° 190° 10 kt METAR EDXW 272350Z AUTO 19010KT 9999 // BKN023/// OVC029/// 04/01 Q1017
00:20
M
4 °C 10 km+ 2.800 ft 180° 180° 10 kt METAR EDXW 272320Z AUTO 18010KT 9999 // OVC028/// 04/01 Q1017

2024年2月27日

时间 代码 天气 温度 能见度 天花板 METAR/SPECI
23:50
M
4 °C 10 km+ 2.700 ft 190° 190° 10 kt METAR EDXW 272250Z AUTO 19010KT 9999 // OVC027/// 04/00 Q1017
23:20
M
4 °C 10 km+ 2.600 ft 190° 190° 10 kt METAR EDXW 272220Z AUTO 19010KT 9999 // OVC026/// 04/01 Q1018
22:50
M
3 °C 10 km+ 2.600 ft 170° 170° 10 kt METAR EDXW 272150Z AUTO 17010KT 9999 // OVC026/// 03/01 Q1018
22:20
M
3 °C 10 km+ 2.500 ft 180° 180° 9 kt METAR EDXW 272120Z AUTO 18009KT 9999 // OVC025/// 03/01 Q1018
21:50
M
3 °C 10 km+ 2.600 ft 170° 170° 10 kt METAR EDXW 272050Z AUTO 17010KT 9999 // OVC026/// 03/01 Q1018
21:20
M
3 °C 10 km+ 2.500 ft 170° 170° 11 kt METAR EDXW 272020Z AUTO 17011KT 9999 // OVC025/// 03/01 Q1018
20:50
M
3 °C 10 km+ 2.500 ft 170° 170° 9 kt METAR EDXW 271950Z AUTO 17009KT 9999 // OVC025/// 03/01 Q1018
20:20
M
3 °C 10 km+ 2.300 ft 180° 180° 8 kt METAR EDXW 271920Z AUTO 18008KT 9999 // OVC023/// 03/02 Q1018
19:50
M
3 °C 10 km+ 2.000 ft 190° 190° 7 kt METAR EDXW 271850Z AUTO 19007KT 9999 // FEW013/// OVC020/// 03/01 Q1018
19:20
M
3 °C 10 km+ 2.100 ft 200° 200° 6 kt METAR EDXW 271820Z AUTO 20006KT 9999 // FEW012/// SCT017/// OVC021/// 03/01 Q1018
18:50
M
3 °C 10 km+ 2.000 ft 170° 170° 7 kt METAR EDXW 271750Z AUTO 17007KT 9999 // FEW013/// OVC020/// 03/01 Q1018
18:20
M
3 °C 10 km+ 1.900 ft 170° 170° 6 kt METAR EDXW 271720Z AUTO 17006KT 9999 // FEW012/// OVC019/// 03/01 Q1018
17:50
M
3 °C 10 km+ 2.100 ft 170° 170° 6 kt METAR EDXW 271650Z AUTO 17006KT 9999 // OVC021/// 03/01 Q1018
17:20
M
3 °C 10 km+ 2.200 ft 170° 170° 7 kt METAR EDXW 271620Z AUTO 17007KT 9999 // OVC022/// 03/01 Q1018
16:50
M
3 °C 10 km+ 2.000 ft 170° 170° 7 kt METAR EDXW 271550Z AUTO 17007KT 9999 // FEW015/// OVC020/// 03/01 Q1018
16:20
M
3 °C 10 km+ 2.000 ft 190° 190° 6 kt METAR EDXW 271520Z AUTO 19006KT 9999 // SCT012/// BKN020/// OVC023/// 03/01 Q1018
15:50
V
3 °C 10 km+ - 180° 180° 6 kt METAR EDXW 271450Z 18006KT 9999 SCT010 03/01 Q1018
15:20
M
4 °C 10 km+ 1.100 ft 200° 200° 4 kt METAR EDXW 271420Z 20004KT 160V250 9999 BKN011 04/01 Q1018
14:50
M
4 °C 10 km+ 1.000 ft 220° 220° 5 kt METAR EDXW 271350Z 22005KT 9999 BKN010 04/01 Q1018
14:20
I
4 °C 10 km+ 900 ft 240° 240° 6 kt METAR EDXW 271320Z 24006KT 9999 OVC009 04/02 Q1018
13:50
I
3 °C 10 km+ 900 ft 230° 230° 3 kt METAR EDXW 271250Z 23003KT 140V300 9999 OVC009 03/01 Q1019
13:20
I
3 °C 10 km+ 800 ft 210° 210° 6 kt METAR EDXW 271220Z 21006KT 160V250 9999 OVC008 03/01 Q1019
12:50
I
3 °C 10 km+ 700 ft 160° 160° 6 kt METAR EDXW 271150Z 16006KT 140V200 9999 OVC007 03/02 Q1019
12:20
I
2 °C 10 km+ 600 ft 170° 170° 6 kt METAR EDXW 271120Z 17006KT 9999 OVC006 02/01 Q1019
11:50
I
2 °C 10 km+ 600 ft 150° 150° 6 kt METAR EDXW 271050Z 15006KT 120V180 9999 OVC006 02/01 Q1019
11:20
M
3 °C 10 km+ 1.000 ft 120° 120° 4 kt METAR EDXW 271020Z 12004KT 080V190 9999 SCT007 OVC010 03/01 Q1019
10:50
M
3 °C 10 km+ 1.100 ft 110° 110° 7 kt METAR EDXW 270950Z 11007KT 9999 FEW006 SCT008 OVC011 03/02 Q1019
10:20
M
3 °C 10 km+ 1.200 ft 120° 120° 7 kt METAR EDXW 270920Z 12007KT 9999 FEW008 OVC012 03/02 Q1019
09:50
M
2 °C 10 km+ 1.000 ft 130° 130° 6 kt METAR EDXW 270850Z 13006KT 9999 OVC010 02/02 Q1019
09:20
I
2 °C 6 km 800 ft 160° 160° 3 kt METAR EDXW 270820Z AUTO 16003KT 6000 // SCT006/// OVC008/// 02/02 Q1019
08:50
I
2 °C 4,2 km 1.200 ft 210° 210° 3 kt METAR EDXW 270750Z AUTO 21003KT 4200 // SCT006/// BKN012/// 02/01 Q1019
08:20
M
1 °C 6 km - 180° 180° 3 kt METAR EDXW 270720Z AUTO 18003KT 6000 // FEW013/// 01/01 Q1019
07:50
M
1 °C 6 km - 130° 130° 6 kt METAR EDXW 270650Z AUTO 13006KT 6000 // FEW014/// 01/01 Q1019
07:20
M
1 °C 5 km 1.600 ft 130° 130° 8 kt METAR EDXW 270620Z AUTO 13008KT 5000 // FEW003/// SCT012/// BKN016/// 01/01 Q1019
06:50
I
2 °C 7 km 900 ft 120° 120° 5 kt METAR EDXW 270550Z AUTO 12005KT 7000 // SCT003/// BKN009/// OVC014/// 02/02 Q1019